createdAt,value
2022-10-05T00:02:32.294Z,5.00
2022-10-05T00:05:34.442Z,5.22
2022-10-05T00:08:36.565Z,5.70
2022-10-05T00:11:38.108Z,5.37
2022-10-05T00:14:40.064Z,5.10
2022-10-05T00:17:43.293Z,5.43
2022-10-05T00:20:45.755Z,4.70
2022-10-05T00:23:47.992Z,5.53
2022-10-05T00:26:55.418Z,5.70
2022-10-05T00:30:02.893Z,6.18
2022-10-05T00:33:04.548Z,6.37
2022-10-05T00:36:07.241Z,6.30
2022-10-05T00:39:10.063Z,5.75
2022-10-05T00:42:36.483Z,6.05
2022-10-05T00:45:44.132Z,5.28
2022-10-05T00:49:01.028Z,6.85
2022-10-05T00:52:40.316Z,7.35
2022-10-05T00:56:04.633Z,6.35
2022-10-05T00:59:40.097Z,6.70
2022-10-05T01:03:08.126Z,6.90
2022-10-05T01:06:36.877Z,7.37
2022-10-05T01:09:48.243Z,6.18
2022-10-05T01:12:55.984Z,6.37
2022-10-05T01:16:25.257Z,6.75
2022-10-05T01:19:45.701Z,6.50
2022-10-05T01:22:47.169Z,7.40
2022-10-05T01:26:27.355Z,7.12
2022-10-05T01:29:36.855Z,7.43
2022-10-05T01:32:43.232Z,7.80
2022-10-05T01:35:56.503Z,6.93
2022-10-05T01:39:42.331Z,8.55
2022-10-05T01:43:02.968Z,9.25
2022-10-05T01:46:32.951Z,8.80
2022-10-05T01:50:03.063Z,9.43
2022-10-05T01:53:31.945Z,10.25
2022-10-05T01:56:51.030Z,9.65
2022-10-05T02:00:04.754Z,9.35
2022-10-05T02:03:16.566Z,9.43
2022-10-05T02:06:25.409Z,8.73
2022-10-05T02:09:32.102Z,9.07
2022-10-05T02:12:37.794Z,8.97
2022-10-05T02:15:46.314Z,9.20
2022-10-05T02:18:54.865Z,8.75
2022-10-05T02:22:05.306Z,7.22
2022-10-05T02:25:13.397Z,6.40
2022-10-05T02:28:27.239Z,5.80
2022-10-05T02:31:36.275Z,6.70
2022-10-05T02:34:43.199Z,7.35
2022-10-05T02:37:54.420Z,6.68
2022-10-05T02:41:10.992Z,5.82
2022-10-05T02:44:26.488Z,5.60
2022-10-05T02:48:05.948Z,5.43
2022-10-05T02:51:28.095Z,5.50
2022-10-05T02:54:48.398Z,5.00
2022-10-05T02:58:16.247Z,5.07
2022-10-05T03:01:39.442Z,5.07
2022-10-05T03:05:16.196Z,5.35
2022-10-05T03:08:34.434Z,6.30
2022-10-05T03:12:03.691Z,6.72
2022-10-05T03:15:40.625Z,6.95
2022-10-05T03:19:00.818Z,7.65
2022-10-05T03:22:22.595Z,8.50
2022-10-05T03:25:39.214Z,7.25
2022-10-05T03:29:01.917Z,7.18
2022-10-05T03:32:15.814Z,7.05
2022-10-05T03:35:28.106Z,7.18
2022-10-05T03:38:50.097Z,7.50
2022-10-05T03:42:04.590Z,7.00
2022-10-05T03:45:27.580Z,7.40
2022-10-05T03:48:54.538Z,8.65
2022-10-05T03:52:23.515Z,7.85
2022-10-05T03:55:42.865Z,7.90
2022-10-05T03:58:59.567Z,8.60
2022-10-05T04:02:06.005Z,9.35
2022-10-05T04:05:30.940Z,8.27
2022-10-05T04:08:47.901Z,7.45
2022-10-05T04:12:04.936Z,7.60
2022-10-05T04:15:19.113Z,7.32
2022-10-05T04:18:39.177Z,7.85
2022-10-05T04:22:02.521Z,6.82
2022-10-05T04:25:37.297Z,8.13
2022-10-05T04:28:53.890Z,7.45
2022-10-05T04:32:22.282Z,19.98
2022-10-05T04:35:54.703Z,18.25
2022-10-05T04:39:08.541Z,14.77
2022-10-05T04:42:36.250Z,11.43
2022-10-05T04:46:29.501Z,10.90
2022-10-05T04:49:40.399Z,13.57
2022-10-05T04:52:59.244Z,13.52
2022-10-05T04:56:12.334Z,12.90
2022-10-05T04:59:32.007Z,11.90
2022-10-05T05:03:13.600Z,13.57
2022-10-05T05:06:17.785Z,16.95
2022-10-05T05:09:42.598Z,16.02
2022-10-05T05:13:18.954Z,15.45
2022-10-05T05:16:23.654Z,15.23
2022-10-05T05:20:02.526Z,15.75
2022-10-05T05:23:26.818Z,16.55
2022-10-05T05:26:49.796Z,19.60
2022-10-05T05:30:22.493Z,17.35
2022-10-05T05:33:35.628Z,17.45
2022-10-05T05:36:55.749Z,16.90
2022-10-05T05:40:15.821Z,17.30
2022-10-05T05:43:45.844Z,13.00
2022-10-05T05:47:03.933Z,11.40
2022-10-05T05:50:18.085Z,11.80
2022-10-05T05:53:49.078Z,12.57
2022-10-05T05:57:08.432Z,11.30
2022-10-05T06:00:23.328Z,12.52
2022-10-05T06:03:52.355Z,19.65
2022-10-05T06:06:58.219Z,17.90
2022-10-05T06:10:29.488Z,19.52
2022-10-05T06:13:35.898Z,18.00
2022-10-05T06:16:46.631Z,16.23
2022-10-05T06:19:53.721Z,15.45
2022-10-05T06:23:00.950Z,15.40
2022-10-05T06:26:20.698Z,10.98
2022-10-05T06:29:26.114Z,11.18
2022-10-05T06:33:01.226Z,9.50
2022-10-05T06:36:33.788Z,9.77
2022-10-05T06:40:00.945Z,10.88
2022-10-05T06:43:06.375Z,11.23
2022-10-05T06:46:14.023Z,14.95
2022-10-05T06:49:23.560Z,12.43
2022-10-05T06:52:59.876Z,12.60
2022-10-05T06:56:41.521Z,12.35
2022-10-05T07:00:12.629Z,14.32
2022-10-05T07:03:46.850Z,16.60
2022-10-05T07:06:58.197Z,14.75
2022-10-05T07:10:47.881Z,12.95
2022-10-05T07:13:55.440Z,13.00
2022-10-05T07:17:34.565Z,12.88
2022-10-05T07:20:50.201Z,12.82
2022-10-05T07:24:13.511Z,9.57
2022-10-05T07:27:21.087Z,8.32
2022-10-05T07:30:23.047Z,7.22
2022-10-05T07:33:31.770Z,6.43
2022-10-05T07:37:06.055Z,5.93
2022-10-05T07:40:18.534Z,5.97
2022-10-05T07:44:02.450Z,4.85
2022-10-05T07:47:18.305Z,4.85
2022-10-05T07:50:26.742Z,5.53
2022-10-05T07:53:32.108Z,4.53
2022-10-05T07:56:40.448Z,4.50
2022-10-05T08:00:02.093Z,4.03
2022-10-05T08:03:14.126Z,2.95
2022-10-05T08:06:34.765Z,3.15
2022-10-05T08:09:45.792Z,2.55
2022-10-05T08:13:18.465Z,3.30
2022-10-05T08:16:25.746Z,3.60
2022-10-05T08:19:38.796Z,2.58
2022-10-05T08:22:46.217Z,2.40
2022-10-05T08:25:50.868Z,2.25
2022-10-05T08:29:01.116Z,2.70
2022-10-05T08:32:09.635Z,3.15
2022-10-05T08:35:24.231Z,2.20
2022-10-05T08:38:32.885Z,2.70
2022-10-05T08:41:46.832Z,2.70
2022-10-05T08:45:13.325Z,2.87
2022-10-05T08:48:33.713Z,2.67
2022-10-05T08:51:35.483Z,2.92
2022-10-05T08:54:55.705Z,2.53
2022-10-05T08:58:26.014Z,2.90
2022-10-05T09:01:36.693Z,2.87
2022-10-05T09:05:06.487Z,2.80
2022-10-05T09:08:54.044Z,2.62
2022-10-05T09:12:22.999Z,2.58
2022-10-05T09:15:33.992Z,2.60
2022-10-05T09:19:09.710Z,2.60
2022-10-05T09:22:38.640Z,2.42
2022-10-05T09:25:59.875Z,2.70
2022-10-05T09:29:36.906Z,2.90
2022-10-05T09:33:06.357Z,2.33
2022-10-05T09:36:47.972Z,2.50
2022-10-05T09:40:20.363Z,2.37
2022-10-05T09:43:40.346Z,3.10
2022-10-05T09:47:10.262Z,3.20
2022-10-05T09:50:32.989Z,3.60
2022-10-05T09:53:53.970Z,3.50
2022-10-05T09:57:14.458Z,3.97
2022-10-05T10:00:35.371Z,4.12
2022-10-05T10:04:02.009Z,3.70
2022-10-05T10:07:25.114Z,3.33
2022-10-05T10:10:42.137Z,3.50
2022-10-05T10:13:43.680Z,3.75
2022-10-05T10:17:00.256Z,3.53
2022-10-05T10:20:35.995Z,3.67
2022-10-05T10:24:16.935Z,3.90
2022-10-05T10:27:39.590Z,3.17
2022-10-05T10:30:52.862Z,3.62
2022-10-05T10:34:13.404Z,3.70
2022-10-05T10:37:50.692Z,3.83
2022-10-05T10:41:11.523Z,3.70
2022-10-05T10:44:31.918Z,3.58
2022-10-05T10:47:54.584Z,4.03
2022-10-05T10:51:04.422Z,3.50
2022-10-05T10:54:53.332Z,3.37
2022-10-05T10:58:16.070Z,3.80
2022-10-05T11:01:47.110Z,5.20
2022-10-05T11:05:21.228Z,3.08
2022-10-05T11:08:50.630Z,3.47
2022-10-05T11:12:34.209Z,2.60
2022-10-05T11:16:01.250Z,2.67
2022-10-05T11:19:46.259Z,3.22
2022-10-05T11:23:15.071Z,3.08
2022-10-05T11:26:16.540Z,3.03
2022-10-05T11:29:26.814Z,2.95
2022-10-05T11:32:44.623Z,3.62
2022-10-05T11:35:56.085Z,2.87
2022-10-05T11:39:16.226Z,2.80
2022-10-05T11:42:35.863Z,2.90
2022-10-05T11:46:05.572Z,2.47
2022-10-05T11:49:35.623Z,2.65
2022-10-05T11:52:45.960Z,3.30
2022-10-05T11:56:18.382Z,3.35
2022-10-05T11:59:53.787Z,2.60
2022-10-05T12:03:31.370Z,3.00
2022-10-05T12:06:40.823Z,2.20
2022-10-05T12:10:21.210Z,2.72
2022-10-05T12:13:52.984Z,4.10
2022-10-05T12:17:00.204Z,2.58
2022-10-05T12:23:52.256Z,2.72
2022-10-05T12:27:08.047Z,3.12
2022-10-05T12:30:28.747Z,3.20
2022-10-05T12:33:51.460Z,2.97
2022-10-05T12:37:04.786Z,2.83
2022-10-05T12:40:12.523Z,2.85
2022-10-05T12:46:30.245Z,2.50
2022-10-05T12:49:37.638Z,2.15
2022-10-05T12:53:05.435Z,2.58
2022-10-05T12:56:42.781Z,2.25
2022-10-05T12:59:59.599Z,2.47
2022-10-05T13:03:16.756Z,2.37
2022-10-05T13:06:20.976Z,2.05
2022-10-05T13:09:32.141Z,1.98
2022-10-05T13:12:49.003Z,1.77
2022-10-05T13:15:56.674Z,1.62
2022-10-05T13:19:01.168Z,1.45
2022-10-05T13:22:27.612Z,1.60
2022-10-05T13:25:42.483Z,1.50
2022-10-05T13:28:48.553Z,1.60
2022-10-05T13:32:27.175Z,1.92
2022-10-05T13:35:56.798Z,1.60
2022-10-05T13:39:08.196Z,1.95
2022-10-05T13:42:15.382Z,1.70
2022-10-05T13:48:41.778Z,1.70
2022-10-05T13:51:46.224Z,1.90
2022-10-05T13:55:06.159Z,1.90
2022-10-05T13:58:23.136Z,1.60
2022-10-05T14:01:41.775Z,2.15
2022-10-05T14:04:45.056Z,2.15
2022-10-05T14:08:15.695Z,1.60
2022-10-05T14:11:37.055Z,1.70
2022-10-05T14:14:47.725Z,1.73
2022-10-05T14:17:51.751Z,1.60
2022-10-05T14:21:08.789Z,1.55
2022-10-05T14:24:44.497Z,1.62
2022-10-05T14:28:28.683Z,1.67
2022-10-05T14:31:36.183Z,1.55
2022-10-05T14:34:54.971Z,1.60
2022-10-05T14:38:01.071Z,1.80
2022-10-05T14:41:09.601Z,1.90
2022-10-05T14:44:11.287Z,1.75
2022-10-05T14:47:24.059Z,1.87
2022-10-05T14:50:29.653Z,1.73
2022-10-05T14:53:57.050Z,1.70
2022-10-05T14:57:07.712Z,3.45
2022-10-05T15:00:12.517Z,6.53
2022-10-05T15:03:46.923Z,1.70
2022-10-05T15:07:04.449Z,1.70
2022-10-05T15:13:33.087Z,5.60
2022-10-05T15:16:39.368Z,4.40
2022-10-05T15:19:54.506Z,4.87
2022-10-05T15:23:11.329Z,4.15
2022-10-05T15:26:47.073Z,4.63
2022-10-05T15:30:18.200Z,6.07
2022-10-05T15:33:46.708Z,2.90
2022-10-05T15:37:03.124Z,1.95
2022-10-05T15:40:08.590Z,2.03
2022-10-05T15:43:22.940Z,1.75
2022-10-05T15:46:35.615Z,1.98
2022-10-05T15:50:04.199Z,2.33
2022-10-05T15:53:13.574Z,2.25
2022-10-05T15:56:22.280Z,3.62
2022-10-05T15:59:30.580Z,3.10
2022-10-05T16:02:59.482Z,3.35
2022-10-05T16:06:45.221Z,14.98
2022-10-05T16:10:02.273Z,3.83
2022-10-05T16:13:22.483Z,2.93
2022-10-05T16:16:43.125Z,2.42
2022-10-05T16:19:54.100Z,3.35
2022-10-05T16:23:26.565Z,3.03
2022-10-05T16:26:43.619Z,2.78
2022-10-05T16:30:13.786Z,4.15
2022-10-05T16:33:18.367Z,5.00
2022-10-05T16:36:41.107Z,6.45
2022-10-05T16:40:11.282Z,9.43
2022-10-05T16:43:34.274Z,8.73
2022-10-05T16:46:52.586Z,5.80
2022-10-05T16:50:17.727Z,6.03
2022-10-05T16:53:24.298Z,8.95
2022-10-05T16:56:34.234Z,7.65
2022-10-05T17:00:08.101Z,10.35
2022-10-05T17:03:12.733Z,7.22
2022-10-05T17:06:33.230Z,5.90
2022-10-05T17:09:43.976Z,7.07
2022-10-05T17:13:02.642Z,7.68
2022-10-05T17:16:22.854Z,9.80
2022-10-05T17:19:50.543Z,9.13
2022-10-05T17:22:58.045Z,10.25
2022-10-05T17:26:27.192Z,15.55
2022-10-05T17:29:31.206Z,18.95
2022-10-05T17:32:36.569Z,20.50
2022-10-05T17:36:03.263Z,17.55
2022-10-05T17:39:43.936Z,16.17
2022-10-05T17:42:46.564Z,17.30
2022-10-05T17:45:51.628Z,16.52
2022-10-05T17:48:56.442Z,13.02
2022-10-05T17:52:32.431Z,10.95
2022-10-05T17:55:34.234Z,10.73
2022-10-05T17:58:35.693Z,9.50
2022-10-05T18:01:40.541Z,12.60
2022-10-05T18:05:05.119Z,13.38
2022-10-05T18:08:12.860Z,15.25
2022-10-05T18:11:33.519Z,17.70
2022-10-05T18:15:14.181Z,17.05
2022-10-05T18:18:36.132Z,15.93
2022-10-05T18:21:38.907Z,18.20
2022-10-05T18:24:45.306Z,15.55
2022-10-05T18:28:06.562Z,14.35
2022-10-05T18:31:46.509Z,12.15
2022-10-05T18:35:02.241Z,10.00
2022-10-05T18:38:26.543Z,8.95
2022-10-05T18:42:07.367Z,5.85
2022-10-05T18:45:29.672Z,4.95
2022-10-05T18:48:48.828Z,3.45
2022-10-05T18:51:59.549Z,4.80
2022-10-05T18:55:20.764Z,3.80
2022-10-05T18:58:52.058Z,3.50
2022-10-05T19:02:12.014Z,3.90
2022-10-05T19:05:47.111Z,3.45
2022-10-05T19:09:27.728Z,4.00
2022-10-05T19:12:49.480Z,3.33
2022-10-05T19:16:00.050Z,3.35
2022-10-05T19:19:29.347Z,3.37
2022-10-05T19:22:52.426Z,3.65
2022-10-05T19:26:03.765Z,3.87
2022-10-05T19:29:19.374Z,4.62
2022-10-05T19:32:42.521Z,4.10
2022-10-05T19:36:16.784Z,4.20
2022-10-05T19:39:54.180Z,4.30
2022-10-05T19:42:56.330Z,3.87
2022-10-05T19:46:08.684Z,4.07
2022-10-05T19:49:13.220Z,4.37
2022-10-05T19:52:48.986Z,4.50
2022-10-05T19:55:55.467Z,4.10
2022-10-05T19:59:09.580Z,4.25
2022-10-05T20:02:15.818Z,4.15
2022-10-05T20:05:18.189Z,4.43
2022-10-05T20:08:21.749Z,3.90
2022-10-05T20:11:31.759Z,4.12
2022-10-05T20:14:58.562Z,4.15
2022-10-05T20:18:58.489Z,4.20
2022-10-05T20:22:32.839Z,4.10
2022-10-05T20:25:37.355Z,4.00
2022-10-05T20:28:39.395Z,4.60
2022-10-05T20:31:41.173Z,3.92
2022-10-05T20:34:44.712Z,4.10
2022-10-05T20:37:46.468Z,4.93
2022-10-05T20:40:48.670Z,5.20
2022-10-05T20:43:50.657Z,4.32
2022-10-05T20:46:55.209Z,4.80
2022-10-05T20:49:57.269Z,4.28
2022-10-05T20:52:58.822Z,4.10
2022-10-05T20:56:04.809Z,4.82
2022-10-05T20:59:06.474Z,4.32
2022-10-05T21:02:08.068Z,4.70
2022-10-05T21:05:10.118Z,4.47
2022-10-05T21:08:11.988Z,4.97
2022-10-05T21:11:14.526Z,5.18
2022-10-05T21:14:16.575Z,4.72
2022-10-05T21:17:20.200Z,5.18
2022-10-05T21:20:22.176Z,5.00
2022-10-05T21:23:23.728Z,5.03
2022-10-05T21:26:25.660Z,4.05
2022-10-05T21:29:27.956Z,4.97
2022-10-05T21:32:29.612Z,5.05
2022-10-05T21:35:31.530Z,4.87
2022-10-05T21:38:33.143Z,5.25
2022-10-05T21:41:34.726Z,5.35
2022-10-05T21:44:36.601Z,5.05
2022-10-05T21:47:38.209Z,5.12
2022-10-05T21:50:40.444Z,4.93
2022-10-05T21:53:47.715Z,5.15
2022-10-05T21:56:55.889Z,5.40
2022-10-05T21:59:57.522Z,5.20
2022-10-05T22:02:59.419Z,5.10
2022-10-05T22:06:01.333Z,4.90
2022-10-05T22:09:04.462Z,5.65
2022-10-05T22:12:06.468Z,4.95
2022-10-05T22:15:09.773Z,5.30
2022-10-05T22:18:17.290Z,5.37
2022-10-05T22:24:22.919Z,5.35
2022-10-05T22:27:27.006Z,5.60
2022-10-05T22:30:29.411Z,5.62
2022-10-05T22:33:31.540Z,5.43
2022-10-05T22:36:37.643Z,5.10
2022-10-05T22:39:40.504Z,5.62
2022-10-05T22:42:42.506Z,5.72
2022-10-05T22:45:44.557Z,5.22
2022-10-05T22:48:46.149Z,4.87
2022-10-05T22:51:49.232Z,5.57
2022-10-05T22:54:51.057Z,6.15
2022-10-05T22:57:52.998Z,5.57
2022-10-05T23:00:58.440Z,5.97
2022-10-05T23:04:00.733Z,6.28
2022-10-05T23:07:02.939Z,6.15
2022-10-05T23:10:07.188Z,6.18
2022-10-05T23:13:09.001Z,5.95
2022-10-05T23:16:13.488Z,5.93
2022-10-05T23:19:15.697Z,6.22
2022-10-05T23:22:17.489Z,5.50
2022-10-05T23:25:19.427Z,6.00
2022-10-05T23:28:21.059Z,5.62
2022-10-05T23:31:26.050Z,6.32
2022-10-05T23:34:27.626Z,6.15
2022-10-05T23:37:29.523Z,6.20
2022-10-05T23:40:31.217Z,6.47
2022-10-05T23:43:33.453Z,5.43
2022-10-05T23:46:35.054Z,5.80
2022-10-05T23:49:36.615Z,6.00
2022-10-05T23:52:38.634Z,6.15
2022-10-05T23:55:40.221Z,6.12
2022-10-05T23:58:42.022Z,6.00
